Bookmark and Share
Track history (hours):
 

Minerva Anna

Last reported at 2014-Apr-11 21:19 UTC. Time now 2014-Apr-18 20:43 UTC.
Position N 56°04' E 004°04'.

Length 183 m; draft 7.5 m.

Type: Ship. MMSI: 240729000.

NotesDate/timePositionNaut miles runAvg speedWind from/ knotsBaromVisibWave heightAir tempDewpointWater temp
2014-Apr-11 21:19N 56°04' E 004°04'1316.4
2014-Apr-11 20:30N 55°51' E 004°09'11316.2
2014-Apr-11 13:31N 53°59' E 004°37'7515.1
2014-Apr-11 08:33N 52°58' E 003°22'3215.1
2014-Apr-11 06:27N 52°30' E 002°58'1415.0
2014-Apr-11 05:32N 52°18' E 002°47'1514.8
2014-Apr-11 04:31N 52°04' E 002°41'1515.2
2014-Apr-11 03:33N 51°50' E 002°50'1615.7
2014-Apr-11 02:33N 51°45' E 003°14'1212.3
2014-Apr-11 01:33N 51°35' E 003°24'1211.7
2014-Apr-11 00:33N 51°26' E 003°37'1211.6
2014-Apr-10 23:34N 51°21' E 003°53'7 7.2
2014-Apr-10 22:33N 51°22' E 004°05'8 7.9
2014-Apr-10 21:34N 51°21' E 004°17'0 0.2
2014-Apr-10 20:34N 51°21' E 004°18'5 4.9
2014-Apr-10 19:33N 51°16' E 004°22'0 0.1
2014-Apr-10 18:33N 51°16' E 004°21'0 0.0
2014-Apr-10 17:30N 51°16' E 004°21'0 0.0
2014-Apr-10 16:30N 51°16' E 004°21'0 0.0
2014-Apr-10 15:33N 51°16' E 004°21'0 0.0
2014-Apr-10 14:33N 51°16' E 004°21'0 0.0
2014-Apr-10 13:30N 51°16' E 004°21'0 0.0
2014-Apr-10 12:33N 51°16' E 004°21'0 0.0
2014-Apr-10 11:33N 51°16' E 004°21'0 0.0
2014-Apr-10 10:33N 51°16' E 004°21'0 0.0
2014-Apr-10 09:33N 51°16' E 004°21'0 0.0
2014-Apr-10 08:33N 51°16' E 004°21'0 0.0
2014-Apr-10 07:33N 51°16' E 004°21'0 0.0
2014-Apr-10 06:33N 51°16' E 004°21'0 0.0
2014-Apr-10 05:33N 51°16' E 004°21'0 0.0
2014-Apr-10 04:33N 51°16' E 004°21'0 0.0
2014-Apr-10 03:33N 51°16' E 004°21'0 0.0
2014-Apr-10 02:33N 51°16' E 004°21'0 0.0
2014-Apr-10 01:33N 51°16' E 004°21'0 0.0
2014-Apr-10 00:33N 51°16' E 004°21'0 0.0
2014-Apr-09 23:33N 51°16' E 004°21'0 0.0
2014-Apr-09 22:33N 51°16' E 004°21'0 0.0
2014-Apr-09 21:33N 51°16' E 004°21'0 0.0
2014-Apr-09 20:33N 51°16' E 004°21'0 0.0
2014-Apr-09 19:33N 51°16' E 004°21'0 0.0
2014-Apr-09 18:33N 51°16' E 004°21'0 0.0
2014-Apr-09 17:33N 51°16' E 004°21'0 0.0
2014-Apr-09 16:30N 51°16' E 004°21'0 0.0
2014-Apr-09 15:30N 51°16' E 004°21'0 0.0
2014-Apr-09 14:33N 51°16' E 004°21'0 0.0
2014-Apr-09 13:33N 51°16' E 004°21'0 0.0
2014-Apr-09 12:33N 51°16' E 004°21'0 0.0
2014-Apr-09 11:33N 51°16' E 004°21'0 0.0
2014-Apr-09 10:33N 51°16' E 004°21'0 0.0
2014-Apr-09 09:33N 51°16' E 004°21'0 0.0
2014-Apr-09 08:33N 51°16' E 004°21'0 0.0
2014-Apr-09 07:33N 51°16' E 004°21'0 0.0
2014-Apr-09 06:33N 51°16' E 004°21'0 0.0
2014-Apr-09 05:30N 51°16' E 004°21'0 0.0
2014-Apr-09 04:33N 51°16' E 004°21'0 0.0
2014-Apr-09 03:33N 51°16' E 004°21'0 0.0
2014-Apr-09 02:33N 51°16' E 004°21'0 0.0
2014-Apr-09 01:33N 51°16' E 004°21'0 0.0
2014-Apr-09 00:33N 51°16' E 004°21'0 0.0
2014-Apr-08 23:33N 51°16' E 004°21'0 0.0
2014-Apr-08 22:33N 51°16' E 004°21'0 0.0
2014-Apr-08 21:33N 51°16' E 004°21'0 0.0
2014-Apr-08 20:30N 51°16' E 004°21'0 0.0
2014-Apr-08 19:30N 51°16' E 004°21'0 0.0
2014-Apr-08 18:33N 51°16' E 004°21'0 0.0
2014-Apr-08 17:33N 51°16' E 004°21'0 0.0
2014-Apr-08 16:33N 51°16' E 004°21'0 0.0
2014-Apr-08 15:33N 51°16' E 004°21'0 0.0
2014-Apr-08 14:33N 51°16' E 004°21'0 0.0
2014-Apr-08 13:33N 51°16' E 004°21'0 0.0
2014-Apr-08 12:33N 51°16' E 004°21'0 0.0
2014-Apr-08 11:33N 51°16' E 004°21'0 0.0
2014-Apr-08 10:21N 51°16' E 004°21'0 0.0
2014-Apr-08 09:27N 51°16' E 004°21'0 0.0
2014-Apr-08 08:33N 51°16' E 004°21'0 0.0
2014-Apr-08 07:30N 51°16' E 004°21'0 0.0
2014-Apr-08 06:30N 51°16' E 004°21'0 0.0
2014-Apr-08 05:33N 51°16' E 004°21'0 0.0
2014-Apr-08 04:33N 51°16' E 004°21'0 0.0
2014-Apr-08 03:33N 51°16' E 004°21'0 0.0
2014-Apr-08 02:30N 51°16' E 004°21'0 0.0
2014-Apr-08 01:33N 51°16' E 004°21'0 0.0
2014-Apr-08 00:33N 51°16' E 004°21'0 0.0
2014-Apr-07 23:33N 51°16' E 004°21'0 0.0
2014-Apr-07 22:33N 51°16' E 004°21'0 0.0
2014-Apr-07 21:33N 51°16' E 004°21'0 0.0
2014-Apr-07 20:33N 51°16' E 004°21'0 0.0
2014-Apr-07 19:33N 51°16' E 004°21'0 0.0
2014-Apr-07 17:33N 51°16' E 004°21'0 0.0
2014-Apr-07 16:33N 51°16' E 004°21'0 0.0
2014-Apr-07 15:33N 51°16' E 004°21'0 0.0
2014-Apr-07 14:30N 51°16' E 004°21'0 0.0
2014-Apr-07 13:30N 51°16' E 004°21'0 0.0
2014-Apr-07 12:33N 51°16' E 004°21'0 0.0
2014-Apr-07 11:33N 51°16' E 004°21'0 0.0
2014-Apr-07 10:33N 51°16' E 004°21'0 0.0
2014-Apr-07 09:33N 51°16' E 004°21'0 0.0
2014-Apr-07 08:33N 51°16' E 004°21'0 0.0
2014-Apr-07 07:33N 51°16' E 004°21'0 0.0
2014-Apr-07 06:30N 51°16' E 004°21'0 0.0
2014-Apr-07 05:33N 51°16' E 004°21'0 0.0
2014-Apr-07 04:30N 51°16' E 004°21'0 0.0
2014-Apr-07 03:30N 51°16' E 004°21'0 0.0
2014-Apr-07 02:33N 51°16' E 004°21'0 0.0
2014-Apr-07 01:33N 51°16' E 004°21'0 0.0
2014-Apr-07 00:33N 51°16' E 004°21'0 0.0
2014-Apr-06 23:27N 51°16' E 004°21'0 0.0
2014-Apr-06 22:31N 51°16' E 004°21'0 0.0
2014-Apr-06 21:31N 51°16' E 004°21'0 0.0
2014-Apr-06 20:31N 51°16' E 004°21'0 0.0
2014-Apr-06 19:31N 51°16' E 004°21'0 0.0
2014-Apr-06 18:28N 51°16' E 004°21'0 0.0
2014-Apr-06 17:31N 51°16' E 004°21'0 0.0
2014-Apr-06 16:31N 51°16' E 004°21'0 0.0
2014-Apr-06 15:28N 51°16' E 004°21'0 0.0
2014-Apr-06 14:31N 51°16' E 004°21'0 0.0
2014-Apr-06 13:31N 51°16' E 004°21'0 0.0
2014-Apr-06 12:31N 51°16' E 004°21'0 0.0
2014-Apr-06 11:31N 51°16' E 004°21'0 0.0
2014-Apr-06 10:28N 51°16' E 004°21'0 0.0
2014-Apr-06 09:31N 51°16' E 004°21'0 0.0
2014-Apr-06 08:31N 51°16' E 004°21'0 0.0
2014-Apr-06 07:28N 51°16' E 004°21'0 0.0
2014-Apr-06 06:31N 51°16' E 004°21'0 0.1
2014-Apr-06 05:33N 51°16' E 004°22'5 5.2
2014-Apr-06 04:34N 51°21' E 004°17'0 0.2
2014-Apr-06 03:34N 51°21' E 004°17'2 2.2
2014-Apr-06 02:33N 51°22' E 004°14'8 7.8
2014-Apr-06 01:34N 51°24' E 004°02'8 8.1
2014-Apr-06 00:34N 51°21' E 003°50'9 9.1
2014-Apr-05 23:34N 51°26' E 003°39'9 8.5
2014-Apr-05 22:33N 51°25' E 003°25'10 9.7
2014-Apr-05 21:33N 51°24' E 003°10'1010.3
2014-Apr-05 20:33N 51°25' E 002°53'8 8.4
2014-Apr-05 19:33N 51°25' E 002°40'0 0.3
2014-Apr-05 18:32N 51°25' E 002°40'0 0.0
2014-Apr-05 17:32N 51°25' E 002°40'0 0.0
2014-Apr-05 16:32N 51°25' E 002°40'0 0.0
2014-Apr-05 15:32N 51°25' E 002°40'0 0.1
2014-Apr-05 14:32N 51°25' E 002°40'0 0.1
2014-Apr-05 13:32N 51°25' E 002°40'0 0.0
2014-Apr-05 12:23N 51°25' E 002°40'0 0.0
2014-Apr-05 11:29N 51°25' E 002°40'0 0.0
2014-Apr-05 10:32N 51°25' E 002°40'0 0.1
2014-Apr-05 09:32N 51°25' E 002°40'0 0.1
2014-Apr-05 08:32N 51°25' E 002°40'0 0.0
2014-Apr-05 07:32N 51°25' E 002°40'0 0.0
2014-Apr-05 06:32N 51°25' E 002°40'0 0.0
2014-Apr-05 05:32N 51°25' E 002°40'0 0.0
2014-Apr-05 04:32N 51°25' E 002°40'0 0.0
2014-Apr-05 03:32N 51°25' E 002°40'0 0.0
2014-Apr-05 02:08N 51°25' E 002°40'0 0.2
2014-Apr-05 01:32N 51°25' E 002°40'0 0.1
2014-Apr-05 00:29N 51°25' E 002°40'0 0.0
2014-Apr-04 23:23N 51°25' E 002°40'0 0.0
2014-Apr-04 22:14N 51°25' E 002°40'0 0.1
2014-Apr-04 21:29N 51°25' E 002°40'0 0.2
2014-Apr-04 20:32N 51°25' E 002°40'0 0.1
2014-Apr-04 19:32N 51°25' E 002°40'0 0.0
2014-Apr-04 18:32N 51°25' E 002°40'0 0.0
2014-Apr-04 17:32N 51°25' E 002°40'0 0.0
2014-Apr-04 16:32N 51°25' E 002°40'0 0.0
2014-Apr-04 15:32N 51°25' E 002°40'0 0.0
2014-Apr-04 14:32N 51°25' E 002°40'0 0.1
2014-Apr-04 13:32N 51°25' E 002°40'0 0.1
2014-Apr-04 12:29N 51°25' E 002°40'0 0.0
2014-Apr-04 11:29N 51°25' E 002°40'0 0.1
2014-Apr-04 10:29N 51°25' E 002°40'0 0.0
2014-Apr-04 09:29N 51°25' E 002°40'0 0.2
2014-Apr-04 08:32N 51°25' E 002°40'0 0.1
2014-Apr-04 07:26N 51°25' E 002°40'0 0.0
2014-Apr-04 06:29N 51°25' E 002°40'0 0.0
2014-Apr-04 05:32N 51°25' E 002°40'5 4.7
2014-Apr-04 04:33N 51°22' E 002°35'1312.5
2014-Apr-04 03:33N 51°19' E 002°15'1111.0
2014-Apr-04 02:33N 51°23' E 001°59'9 9.3
2014-Apr-04 01:33N 51°32' E 002°06'1111.5
2014-Apr-04 00:33N 51°41' E 002°17'1312.7
2014-Apr-03 23:32N 51°51' E 002°31'10711.9
2014-Apr-03 14:33N 53°31' E 003°34'1212.0
2014-Apr-03 13:32N 53°42' E 003°40'1412.2
2014-Apr-03 12:23N 53°51' E 003°58'1910.7
2014-Apr-03 10:33N 54°09' E 004°12'1211.5
2014-Apr-03 09:33N 54°20' E 004°12'1211.6
2014-Apr-03 08:31N 54°32' E 004°12'1211.6
2014-Apr-03 07:27N 54°45' E 004°11'1111.8
2014-Apr-03 06:30N 54°56' E 004°11'4011.7
2014-Apr-03 03:06N 55°36' E 004°10'  

Dump ship's entire track history

sailing weather and tide predictions

Minerva Anna — SVNP — position and weather